Andrews, Texas
Current Conditions -  °F | °C
As of 4:35 AM on Thursday 23 Oct 2014 (Local Time) from KE11 Reporting Station
Haze Haze  
Wind Chill: 53°   Ceiling: 400
Heat Index: 53°   Visibility: 0.75mi
Dew Point: 52°   Wind: 3mph
Humidity: 98%   Direction: 120°ESE
Pressure: 30.13"   Gusts: NA
Location:  32.32°N, 102.54°W
Report Text: KE11 230935Z AUTO 12003KT 3/4SM BR BKN004 11/11 A3013 RMK AO2 T01140111
Loading
Personal Weather Stations






























Interactive Weather Map
Tropical Storm Tracking
New forecast layout! Learn more

10-Day Weather Forecast

Advertisements
Track Severe Weather on mobile